sensor_id;sensor_type;location;lat;lon;timestamp;P1;durP1;ratioP1;P2;durP2;ratioP2
11539;SDS011;5826;54.756;9.192;2022-11-15T00:01:45;25.98;;;17.92;;
11539;SDS011;5826;54.756;9.192;2022-11-15T00:04:10;25.90;;;17.65;;
11539;SDS011;5826;54.756;9.192;2022-11-15T00:06:36;25.38;;;18.10;;
11539;SDS011;5826;54.756;9.192;2022-11-15T00:09:02;25.27;;;17.95;;
11539;SDS011;5826;54.756;9.192;2022-11-15T00:11:27;26.77;;;18.33;;
11539;SDS011;5826;54.756;9.192;2022-11-15T00:13:56;26.05;;;18.42;;
11539;SDS011;5826;54.756;9.192;2022-11-15T00:16:23;26.80;;;18.73;;
11539;SDS011;5826;54.756;9.192;2022-11-15T00:18:49;25.63;;;18.40;;
11539;SDS011;5826;54.756;9.192;2022-11-15T00:21:15;26.05;;;18.88;;
11539;SDS011;5826;54.756;9.192;2022-11-15T00:23:41;25.52;;;18.05;;
11539;SDS011;5826;54.756;9.192;2022-11-15T00:26:07;29.02;;;19.13;;
11539;SDS011;5826;54.756;9.192;2022-11-15T00:28:36;24.83;;;18.60;;
11539;SDS011;5826;54.756;9.192;2022-11-15T00:31:02;26.13;;;19.42;;
11539;SDS011;5826;54.756;9.192;2022-11-15T00:33:29;25.52;;;17.80;;
11539;SDS011;5826;54.756;9.192;2022-11-15T00:36:08;28.17;;;18.80;;
11539;SDS011;5826;54.756;9.192;2022-11-15T00:38:34;26.13;;;18.85;;
11539;SDS011;5826;54.756;9.192;2022-11-15T00:41:02;25.92;;;18.35;;
11539;SDS011;5826;54.756;9.192;2022-11-15T00:43:28;26.30;;;18.70;;
11539;SDS011;5826;54.756;9.192;2022-11-15T00:45:54;25.20;;;18.13;;
11539;SDS011;5826;54.756;9.192;2022-11-15T00:48:20;24.83;;;17.33;;
11539;SDS011;5826;54.756;9.192;2022-11-15T00:50:45;23.42;;;17.42;;
11539;SDS011;5826;54.756;9.192;2022-11-15T00:53:11;25.27;;;18.40;;
11539;SDS011;5826;54.756;9.192;2022-11-15T00:55:37;22.45;;;17.35;;
11539;SDS011;5826;54.756;9.192;2022-11-15T00:58:02;24.63;;;17.75;;
11539;SDS011;5826;54.756;9.192;2022-11-15T01:00:28;24.30;;;17.52;;
11539;SDS011;5826;54.756;9.192;2022-11-15T01:02:53;24.30;;;17.23;;
11539;SDS011;5826;54.756;9.192;2022-11-15T01:05:19;24.73;;;17.30;;
11539;SDS011;5826;54.756;9.192;2022-11-15T01:07:45;24.90;;;17.17;;
11539;SDS011;5826;54.756;9.192;2022-11-15T01:10:11;23.77;;;17.63;;
11539;SDS011;5826;54.756;9.192;2022-11-15T01:12:36;25.42;;;17.13;;
11539;SDS011;5826;54.756;9.192;2022-11-15T01:15:02;23.35;;;17.35;;
11539;SDS011;5826;54.756;9.192;2022-11-15T01:17:30;23.75;;;17.88;;
11539;SDS011;5826;54.756;9.192;2022-11-15T01:19:56;24.48;;;17.58;;
11539;SDS011;5826;54.756;9.192;2022-11-15T01:22:21;23.77;;;16.98;;
11539;SDS011;5826;54.756;9.192;2022-11-15T01:24:49;23.58;;;17.38;;
11539;SDS011;5826;54.756;9.192;2022-11-15T01:27:15;24.45;;;17.98;;
11539;SDS011;5826;54.756;9.192;2022-11-15T01:29:40;23.35;;;16.98;;
11539;SDS011;5826;54.756;9.192;2022-11-15T01:32:06;24.10;;;17.27;;
11539;SDS011;5826;54.756;9.192;2022-11-15T01:34:31;24.20;;;17.67;;
11539;SDS011;5826;54.756;9.192;2022-11-15T01:36:57;25.13;;;18.73;;
11539;SDS011;5826;54.756;9.192;2022-11-15T01:39:22;26.90;;;18.27;;
11539;SDS011;5826;54.756;9.192;2022-11-15T01:41:48;23.83;;;17.13;;
11539;SDS011;5826;54.756;9.192;2022-11-15T01:47:10;22.17;;;16.38;;
11539;SDS011;5826;54.756;9.192;2022-11-15T01:49:40;24.27;;;17.00;;
11539;SDS011;5826;54.756;9.192;2022-11-15T01:52:13;24.90;;;17.85;;
11539;SDS011;5826;54.756;9.192;2022-11-15T01:54:42;24.83;;;17.70;;
11539;SDS011;5826;54.756;9.192;2022-11-15T01:57:08;26.83;;;18.13;;
11539;SDS011;5826;54.756;9.192;2022-11-15T01:59:39;23.48;;;17.02;;
11539;SDS011;5826;54.756;9.192;2022-11-15T02:02:07;23.67;;;17.25;;
11539;SDS011;5826;54.756;9.192;2022-11-15T02:04:40;23.73;;;16.90;;
11539;SDS011;5826;54.756;9.192;2022-11-15T02:07:16;24.85;;;16.85;;
11539;SDS011;5826;54.756;9.192;2022-11-15T02:09:43;23.08;;;16.85;;
11539;SDS011;5826;54.756;9.192;2022-11-15T02:12:10;23.65;;;17.38;;
11539;SDS011;5826;54.756;9.192;2022-11-15T02:14:39;24.15;;;17.65;;
11539;SDS011;5826;54.756;9.192;2022-11-15T02:17:23;25.30;;;17.35;;
11539;SDS011;5826;54.756;9.192;2022-11-15T02:29:03;21.33;;;15.77;;
11539;SDS011;5826;54.756;9.192;2022-11-15T02:31:54;22.92;;;16.48;;
11539;SDS011;5826;54.756;9.192;2022-11-15T02:39:51;21.70;;;16.25;;
11539;SDS011;5826;54.756;9.192;2022-11-15T02:42:30;21.95;;;16.83;;
11539;SDS011;5826;54.756;9.192;2022-11-15T02:45:23;20.65;;;15.50;;
11539;SDS011;5826;54.756;9.192;2022-11-15T02:47:53;22.50;;;16.45;;
11539;SDS011;5826;54.756;9.192;2022-11-15T02:50:23;20.75;;;16.13;;
11539;SDS011;5826;54.756;9.192;2022-11-15T02:52:52;25.05;;;18.42;;
11539;SDS011;5826;54.756;9.192;2022-11-15T02:55:31;22.73;;;16.80;;
11539;SDS011;5826;54.756;9.192;2022-11-15T02:58:03;22.58;;;16.42;;
11539;SDS011;5826;54.756;9.192;2022-11-15T03:00:48;24.67;;;17.17;;
11539;SDS011;5826;54.756;9.192;2022-11-15T03:09:00;20.58;;;15.15;;
11539;SDS011;5826;54.756;9.192;2022-11-15T03:11:29;22.02;;;15.93;;
11539;SDS011;5826;54.756;9.192;2022-11-15T03:16:58;21.08;;;15.98;;
11539;SDS011;5826;54.756;9.192;2022-11-15T03:19:47;24.70;;;17.25;;
11539;SDS011;5826;54.756;9.192;2022-11-15T03:22:17;22.15;;;16.95;;
11539;SDS011;5826;54.756;9.192;2022-11-15T03:24:46;25.83;;;17.48;;
11539;SDS011;5826;54.756;9.192;2022-11-15T03:27:15;23.83;;;16.88;;
11539;SDS011;5826;54.756;9.192;2022-11-15T03:29:47;22.40;;;16.55;;
11539;SDS011;5826;54.756;9.192;2022-11-15T03:32:26;22.40;;;16.60;;
11539;SDS011;5826;54.756;9.192;2022-11-15T03:34:57;21.50;;;15.90;;
11539;SDS011;5826;54.756;9.192;2022-11-15T03:37:29;21.92;;;16.17;;
11539;SDS011;5826;54.756;9.192;2022-11-15T03:40:07;20.92;;;16.13;;
11539;SDS011;5826;54.756;9.192;2022-11-15T03:42:42;22.20;;;16.50;;
11539;SDS011;5826;54.756;9.192;2022-11-15T03:45:14;22.30;;;16.48;;
11539;SDS011;5826;54.756;9.192;2022-11-15T03:47:51;20.02;;;15.82;;
11539;SDS011;5826;54.756;9.192;2022-11-15T03:50:23;22.90;;;17.13;;
11539;SDS011;5826;54.756;9.192;2022-11-15T03:52:50;21.67;;;16.60;;
11539;SDS011;5826;54.756;9.192;2022-11-15T03:55:19;21.95;;;16.67;;
11539;SDS011;5826;54.756;9.192;2022-11-15T03:57:46;22.45;;;16.80;;
11539;SDS011;5826;54.756;9.192;2022-11-15T04:00:13;22.77;;;16.45;;
11539;SDS011;5826;54.756;9.192;2022-11-15T04:02:39;22.17;;;16.53;;
11539;SDS011;5826;54.756;9.192;2022-11-15T04:05:05;19.95;;;15.32;;
11539;SDS011;5826;54.756;9.192;2022-11-15T04:07:31;21.42;;;16.55;;
11539;SDS011;5826;54.756;9.192;2022-11-15T04:09:56;20.55;;;15.48;;
11539;SDS011;5826;54.756;9.192;2022-11-15T04:12:29;21.08;;;16.02;;
11539;SDS011;5826;54.756;9.192;2022-11-15T04:17:46;21.42;;;15.77;;
11539;SDS011;5826;54.756;9.192;2022-11-15T04:20:17;21.67;;;16.48;;
11539;SDS011;5826;54.756;9.192;2022-11-15T04:23:07;22.80;;;16.67;;
11539;SDS011;5826;54.756;9.192;2022-11-15T04:25:54;22.52;;;17.50;;
11539;SDS011;5826;54.756;9.192;2022-11-15T04:28:21;21.70;;;16.65;;
11539;SDS011;5826;54.756;9.192;2022-11-15T04:30:46;22.00;;;15.95;;
11539;SDS011;5826;54.756;9.192;2022-11-15T04:33:12;22.10;;;16.15;;
11539;SDS011;5826;54.756;9.192;2022-11-15T04:35:37;21.05;;;16.38;;
11539;SDS011;5826;54.756;9.192;2022-11-15T04:38:04;23.38;;;17.52;;
11539;SDS011;5826;54.756;9.192;2022-11-15T04:40:31;20.95;;;16.60;;
11539;SDS011;5826;54.756;9.192;2022-11-15T04:42:57;22.45;;;15.95;;
11539;SDS011;5826;54.756;9.192;2022-11-15T04:45:23;23.73;;;16.85;;
11539;SDS011;5826;54.756;9.192;2022-11-15T04:47:48;21.30;;;16.13;;
11539;SDS011;5826;54.756;9.192;2022-11-15T04:50:14;20.67;;;15.75;;
11539;SDS011;5826;54.756;9.192;2022-11-15T04:52:41;20.25;;;16.20;;
11539;SDS011;5826;54.756;9.192;2022-11-15T04:55:08;20.17;;;14.95;;
11539;SDS011;5826;54.756;9.192;2022-11-15T04:57:34;24.27;;;17.17;;
11539;SDS011;5826;54.756;9.192;2022-11-15T05:00:00;24.75;;;17.15;;
11539;SDS011;5826;54.756;9.192;2022-11-15T05:02:26;23.20;;;16.75;;
11539;SDS011;5826;54.756;9.192;2022-11-15T05:05:11;21.85;;;16.73;;
11539;SDS011;5826;54.756;9.192;2022-11-15T05:07:37;22.15;;;16.55;;
11539;SDS011;5826;54.756;9.192;2022-11-15T05:10:02;23.50;;;17.70;;
11539;SDS011;5826;54.756;9.192;2022-11-15T05:12:28;23.27;;;17.25;;
11539;SDS011;5826;54.756;9.192;2022-11-15T05:14:53;22.37;;;17.37;;
11539;SDS011;5826;54.756;9.192;2022-11-15T05:17:19;23.13;;;17.33;;
11539;SDS011;5826;54.756;9.192;2022-11-15T05:19:44;22.98;;;17.50;;
11539;SDS011;5826;54.756;9.192;2022-11-15T05:22:10;24.27;;;17.40;;
11539;SDS011;5826;54.756;9.192;2022-11-15T05:24:35;22.67;;;16.95;;
11539;SDS011;5826;54.756;9.192;2022-11-15T05:27:01;21.90;;;16.70;;
11539;SDS011;5826;54.756;9.192;2022-11-15T05:29:26;22.70;;;17.27;;
11539;SDS011;5826;54.756;9.192;2022-11-15T05:31:52;22.92;;;17.10;;
11539;SDS011;5826;54.756;9.192;2022-11-15T05:34:17;23.40;;;15.82;;
11539;SDS011;5826;54.756;9.192;2022-11-15T05:36:43;23.63;;;16.90;;
11539;SDS011;5826;54.756;9.192;2022-11-15T05:39:10;22.02;;;16.95;;
11539;SDS011;5826;54.756;9.192;2022-11-15T05:41:44;22.77;;;17.47;;
11539;SDS011;5826;54.756;9.192;2022-11-15T05:44:14;23.37;;;17.77;;
11539;SDS011;5826;54.756;9.192;2022-11-15T05:46:42;20.52;;;16.02;;
11539;SDS011;5826;54.756;9.192;2022-11-15T05:49:10;24.77;;;18.25;;
11539;SDS011;5826;54.756;9.192;2022-11-15T05:51:39;22.08;;;16.83;;
11539;SDS011;5826;54.756;9.192;2022-11-15T05:54:07;21.93;;;16.53;;
11539;SDS011;5826;54.756;9.192;2022-11-15T05:56:32;24.10;;;17.33;;
11539;SDS011;5826;54.756;9.192;2022-11-15T05:58:58;23.17;;;17.57;;
11539;SDS011;5826;54.756;9.192;2022-11-15T06:01:24;22.83;;;16.88;;
11539;SDS011;5826;54.756;9.192;2022-11-15T06:03:51;21.70;;;17.33;;
11539;SDS011;5826;54.756;9.192;2022-11-15T06:06:16;21.63;;;17.03;;
11539;SDS011;5826;54.756;9.192;2022-11-15T06:08:42;22.33;;;17.07;;
11539;SDS011;5826;54.756;9.192;2022-11-15T06:11:07;22.70;;;17.07;;
11539;SDS011;5826;54.756;9.192;2022-11-15T06:13:33;23.50;;;17.53;;
11539;SDS011;5826;54.756;9.192;2022-11-15T06:15:59;23.20;;;17.27;;
11539;SDS011;5826;54.756;9.192;2022-11-15T06:18:25;21.80;;;17.02;;
11539;SDS011;5826;54.756;9.192;2022-11-15T06:20:50;21.42;;;16.75;;
11539;SDS011;5826;54.756;9.192;2022-11-15T06:23:16;23.00;;;17.00;;
11539;SDS011;5826;54.756;9.192;2022-11-15T06:25:42;23.87;;;17.47;;
11539;SDS011;5826;54.756;9.192;2022-11-15T06:28:07;21.83;;;16.57;;
11539;SDS011;5826;54.756;9.192;2022-11-15T06:30:33;20.37;;;15.57;;
11539;SDS011;5826;54.756;9.192;2022-11-15T06:33:02;21.90;;;16.50;;
11539;SDS011;5826;54.756;9.192;2022-11-15T06:35:29;22.77;;;17.07;;
11539;SDS011;5826;54.756;9.192;2022-11-15T06:37:55;21.77;;;17.08;;
11539;SDS011;5826;54.756;9.192;2022-11-15T06:40:26;22.17;;;16.47;;
11539;SDS011;5826;54.756;9.192;2022-11-15T06:42:56;20.70;;;16.27;;
11539;SDS011;5826;54.756;9.192;2022-11-15T06:45:22;20.87;;;15.97;;
11539;SDS011;5826;54.756;9.192;2022-11-15T06:47:48;21.13;;;15.57;;
11539;SDS011;5826;54.756;9.192;2022-11-15T06:50:13;20.30;;;15.83;;
11539;SDS011;5826;54.756;9.192;2022-11-15T06:52:39;20.92;;;15.80;;
11539;SDS011;5826;54.756;9.192;2022-11-15T06:55:05;20.57;;;16.07;;
11539;SDS011;5826;54.756;9.192;2022-11-15T06:57:31;21.40;;;15.27;;
11539;SDS011;5826;54.756;9.192;2022-11-15T06:59:57;19.93;;;15.63;;
11539;SDS011;5826;54.756;9.192;2022-11-15T07:02:22;20.80;;;15.60;;
11539;SDS011;5826;54.756;9.192;2022-11-15T07:04:48;21.00;;;16.23;;
11539;SDS011;5826;54.756;9.192;2022-11-15T07:07:13;19.00;;;15.20;;
11539;SDS011;5826;54.756;9.192;2022-11-15T07:09:39;19.70;;;15.70;;
11539;SDS011;5826;54.756;9.192;2022-11-15T07:12:04;19.60;;;14.73;;
11539;SDS011;5826;54.756;9.192;2022-11-15T07:14:30;17.97;;;14.33;;
11539;SDS011;5826;54.756;9.192;2022-11-15T07:16:56;17.60;;;14.00;;
11539;SDS011;5826;54.756;9.192;2022-11-15T07:19:21;17.40;;;14.23;;
11539;SDS011;5826;54.756;9.192;2022-11-15T07:21:47;19.48;;;15.13;;
11539;SDS011;5826;54.756;9.192;2022-11-15T07:24:12;18.10;;;14.10;;
11539;SDS011;5826;54.756;9.192;2022-11-15T07:26:38;19.67;;;14.60;;
11539;SDS011;5826;54.756;9.192;2022-11-15T07:29:03;18.25;;;14.00;;
11539;SDS011;5826;54.756;9.192;2022-11-15T07:31:29;17.23;;;13.40;;
11539;SDS011;5826;54.756;9.192;2022-11-15T07:33:54;17.60;;;13.83;;
11539;SDS011;5826;54.756;9.192;2022-11-15T07:36:20;18.30;;;13.95;;
11539;SDS011;5826;54.756;9.192;2022-11-15T07:38:45;17.40;;;13.30;;
11539;SDS011;5826;54.756;9.192;2022-11-15T07:41:10;18.13;;;14.10;;
11539;SDS011;5826;54.756;9.192;2022-11-15T07:43:36;17.83;;;14.13;;
11539;SDS011;5826;54.756;9.192;2022-11-15T07:46:05;17.20;;;13.53;;
11539;SDS011;5826;54.756;9.192;2022-11-15T07:48:34;18.73;;;14.23;;
11539;SDS011;5826;54.756;9.192;2022-11-15T07:51:00;18.23;;;13.20;;
11539;SDS011;5826;54.756;9.192;2022-11-15T07:53:25;17.40;;;14.10;;
11539;SDS011;5826;54.756;9.192;2022-11-15T07:55:51;17.23;;;14.02;;
11539;SDS011;5826;54.756;9.192;2022-11-15T07:58:18;16.42;;;13.10;;
11539;SDS011;5826;54.756;9.192;2022-11-15T08:00:44;17.20;;;13.53;;
11539;SDS011;5826;54.756;9.192;2022-11-15T08:03:11;17.02;;;13.52;;
11539;SDS011;5826;54.756;9.192;2022-11-15T08:05:38;17.60;;;13.70;;
11539;SDS011;5826;54.756;9.192;2022-11-15T08:08:05;17.25;;;12.93;;
11539;SDS011;5826;54.756;9.192;2022-11-15T08:10:32;17.43;;;13.17;;
11539;SDS011;5826;54.756;9.192;2022-11-15T08:13:02;16.63;;;13.43;;
11539;SDS011;5826;54.756;9.192;2022-11-15T08:15:29;18.17;;;13.38;;
11539;SDS011;5826;54.756;9.192;2022-11-15T08:17:56;16.73;;;13.27;;
11539;SDS011;5826;54.756;9.192;2022-11-15T08:20:23;18.05;;;13.43;;
11539;SDS011;5826;54.756;9.192;2022-11-15T08:22:49;16.60;;;13.10;;
11539;SDS011;5826;54.756;9.192;2022-11-15T08:25:15;17.75;;;13.10;;
11539;SDS011;5826;54.756;9.192;2022-11-15T08:27:40;16.20;;;12.65;;
11539;SDS011;5826;54.756;9.192;2022-11-15T08:30:06;16.87;;;13.10;;
11539;SDS011;5826;54.756;9.192;2022-11-15T08:32:32;16.60;;;13.20;;
11539;SDS011;5826;54.756;9.192;2022-11-15T08:34:57;16.80;;;12.77;;
11539;SDS011;5826;54.756;9.192;2022-11-15T08:37:23;17.08;;;13.15;;
11539;SDS011;5826;54.756;9.192;2022-11-15T08:39:48;16.17;;;13.32;;
11539;SDS011;5826;54.756;9.192;2022-11-15T08:42:14;16.42;;;12.65;;
11539;SDS011;5826;54.756;9.192;2022-11-15T08:44:41;17.63;;;13.00;;
11539;SDS011;5826;54.756;9.192;2022-11-15T08:47:07;15.40;;;12.65;;
11539;SDS011;5826;54.756;9.192;2022-11-15T08:49:33;15.25;;;12.40;;
11539;SDS011;5826;54.756;9.192;2022-11-15T08:51:58;18.00;;;13.27;;
11539;SDS011;5826;54.756;9.192;2022-11-15T08:54:23;16.55;;;12.52;;
11539;SDS011;5826;54.756;9.192;2022-11-15T08:56:49;14.57;;;12.10;;
11539;SDS011;5826;54.756;9.192;2022-11-15T08:59:14;15.57;;;12.25;;
11539;SDS011;5826;54.756;9.192;2022-11-15T09:01:40;14.85;;;12.18;;
11539;SDS011;5826;54.756;9.192;2022-11-15T09:04:05;14.95;;;12.00;;
11539;SDS011;5826;54.756;9.192;2022-11-15T09:06:31;16.25;;;12.50;;
11539;SDS011;5826;54.756;9.192;2022-11-15T09:08:56;16.02;;;12.02;;
11539;SDS011;5826;54.756;9.192;2022-11-15T09:11:22;15.27;;;11.75;;
11539;SDS011;5826;54.756;9.192;2022-11-15T09:13:48;16.67;;;12.63;;
11539;SDS011;5826;54.756;9.192;2022-11-15T09:16:14;14.40;;;11.38;;
11539;SDS011;5826;54.756;9.192;2022-11-15T09:18:40;14.82;;;11.80;;
11539;SDS011;5826;54.756;9.192;2022-11-15T09:21:06;16.17;;;12.65;;
11539;SDS011;5826;54.756;9.192;2022-11-15T09:23:32;16.15;;;12.68;;
11539;SDS011;5826;54.756;9.192;2022-11-15T09:25:58;15.30;;;12.38;;
11539;SDS011;5826;54.756;9.192;2022-11-15T09:28:25;18.33;;;12.90;;
11539;SDS011;5826;54.756;9.192;2022-11-15T09:30:55;15.25;;;12.70;;
11539;SDS011;5826;54.756;9.192;2022-11-15T09:33:24;16.15;;;12.57;;
11539;SDS011;5826;54.756;9.192;2022-11-15T09:35:51;15.52;;;12.00;;
11539;SDS011;5826;54.756;9.192;2022-11-15T09:38:16;14.93;;;11.75;;
11539;SDS011;5826;54.756;9.192;2022-11-15T09:40:42;15.25;;;11.38;;
11539;SDS011;5826;54.756;9.192;2022-11-15T09:43:19;14.77;;;11.52;;
11539;SDS011;5826;54.756;9.192;2022-11-15T09:46:05;14.02;;;10.85;;
11539;SDS011;5826;54.756;9.192;2022-11-15T09:51:30;14.98;;;11.55;;
11539;SDS011;5826;54.756;9.192;2022-11-15T09:53:57;13.23;;;10.77;;
11539;SDS011;5826;54.756;9.192;2022-11-15T09:56:28;13.57;;;10.63;;
11539;SDS011;5826;54.756;9.192;2022-11-15T10:04:41;13.63;;;11.48;;
11539;SDS011;5826;54.756;9.192;2022-11-15T10:07:13;14.60;;;11.38;;
11539;SDS011;5826;54.756;9.192;2022-11-15T10:10:01;16.60;;;11.77;;
11539;SDS011;5826;54.756;9.192;2022-11-15T10:12:34;15.50;;;11.60;;
11539;SDS011;5826;54.756;9.192;2022-11-15T10:15:01;14.38;;;11.25;;
11539;SDS011;5826;54.756;9.192;2022-11-15T10:20:12;13.18;;;10.82;;
11539;SDS011;5826;54.756;9.192;2022-11-15T10:22:45;13.23;;;10.43;;
11539;SDS011;5826;54.756;9.192;2022-11-15T10:25:23;12.55;;;10.45;;
11539;SDS011;5826;54.756;9.192;2022-11-15T10:27:54;17.17;;;12.65;;
11539;SDS011;5826;54.756;9.192;2022-11-15T10:30:33;12.90;;;10.50;;
11539;SDS011;5826;54.756;9.192;2022-11-15T10:39:10;10.90;;;9.40;;
11539;SDS011;5826;54.756;9.192;2022-11-15T10:49:23;14.18;;;11.38;;
11539;SDS011;5826;54.756;9.192;2022-11-15T10:51:59;12.55;;;9.85;;
11539;SDS011;5826;54.756;9.192;2022-11-15T10:54:41;13.18;;;10.43;;
11539;SDS011;5826;54.756;9.192;2022-11-15T10:57:13;10.10;;;9.02;;
11539;SDS011;5826;54.756;9.192;2022-11-15T10:59:42;10.65;;;8.73;;
11539;SDS011;5826;54.756;9.192;2022-11-15T11:02:25;12.05;;;9.50;;
11539;SDS011;5826;54.756;9.192;2022-11-15T11:05:12;10.57;;;8.63;;
11539;SDS011;5826;54.756;9.192;2022-11-15T11:10:37;9.50;;;8.20;;
11539;SDS011;5826;54.756;9.192;2022-11-15T11:13:13;11.50;;;8.77;;
11539;SDS011;5826;54.756;9.192;2022-11-15T11:15:39;11.20;;;9.25;;
11539;SDS011;5826;54.756;9.192;2022-11-15T11:18:07;9.65;;;8.25;;
11539;SDS011;5826;54.756;9.192;2022-11-15T11:20:51;9.80;;;8.32;;
11539;SDS011;5826;54.756;9.192;2022-11-15T11:23:30;10.15;;;8.40;;
11539;SDS011;5826;54.756;9.192;2022-11-15T11:26:33;9.57;;;8.07;;
11539;SDS011;5826;54.756;9.192;2022-11-15T11:29:26;9.57;;;8.23;;
11539;SDS011;5826;54.756;9.192;2022-11-15T11:32:29;12.07;;;9.15;;
11539;SDS011;5826;54.756;9.192;2022-11-15T11:37:49;11.02;;;9.02;;
11539;SDS011;5826;54.756;9.192;2022-11-15T11:42:47;11.02;;;8.82;;
11539;SDS011;5826;54.756;9.192;2022-11-15T11:45:33;10.38;;;8.77;;
11539;SDS011;5826;54.756;9.192;2022-11-15T11:50:37;9.82;;;8.45;;
11539;SDS011;5826;54.756;9.192;2022-11-15T11:53:25;9.80;;;8.43;;
11539;SDS011;5826;54.756;9.192;2022-11-15T11:55:57;8.95;;;7.63;;
11539;SDS011;5826;54.756;9.192;2022-11-15T11:58:37;10.23;;;8.32;;
11539;SDS011;5826;54.756;9.192;2022-11-15T12:04:02;8.93;;;7.75;;
11539;SDS011;5826;54.756;9.192;2022-11-15T12:06:45;9.07;;;7.80;;
11539;SDS011;5826;54.756;9.192;2022-11-15T12:17:29;10.82;;;8.70;;
11539;SDS011;5826;54.756;9.192;2022-11-15T12:19:57;9.70;;;8.20;;
11539;SDS011;5826;54.756;9.192;2022-11-15T12:22:43;11.23;;;8.25;;
11539;SDS011;5826;54.756;9.192;2022-11-15T12:25:23;8.73;;;7.50;;
11539;SDS011;5826;54.756;9.192;2022-11-15T12:28:03;11.40;;;8.43;;
11539;SDS011;5826;54.756;9.192;2022-11-15T12:30:51;8.65;;;7.75;;
11539;SDS011;5826;54.756;9.192;2022-11-15T12:33:30;10.93;;;8.63;;
11539;SDS011;5826;54.756;9.192;2022-11-15T12:36:05;9.13;;;7.60;;
11539;SDS011;5826;54.756;9.192;2022-11-15T12:41:38;8.50;;;7.60;;
11539;SDS011;5826;54.756;9.192;2022-11-15T12:44:10;8.32;;;7.22;;
11539;SDS011;5826;54.756;9.192;2022-11-15T12:49:09;8.20;;;7.05;;
11539;SDS011;5826;54.756;9.192;2022-11-15T13:17:45;7.82;;;6.90;;
11539;SDS011;5826;54.756;9.192;2022-11-15T13:27:47;8.85;;;7.93;;
11539;SDS011;5826;54.756;9.192;2022-11-15T13:30:16;7.25;;;6.40;;
11539;SDS011;5826;54.756;9.192;2022-11-15T13:32:45;7.45;;;6.60;;
11539;SDS011;5826;54.756;9.192;2022-11-15T13:35:25;7.55;;;6.78;;
11539;SDS011;5826;54.756;9.192;2022-11-15T13:37:53;8.00;;;6.80;;
11539;SDS011;5826;54.756;9.192;2022-11-15T13:40:22;8.45;;;6.78;;
11539;SDS011;5826;54.756;9.192;2022-11-15T13:42:55;7.30;;;6.32;;
11539;SDS011;5826;54.756;9.192;2022-11-15T13:45:22;7.65;;;6.57;;
11539;SDS011;5826;54.756;9.192;2022-11-15T13:47:55;8.88;;;7.30;;
11539;SDS011;5826;54.756;9.192;2022-11-15T13:50:27;8.25;;;6.97;;
11539;SDS011;5826;54.756;9.192;2022-11-15T13:52:57;7.85;;;6.80;;
11539;SDS011;5826;54.756;9.192;2022-11-15T13:55:26;8.25;;;6.85;;
11539;SDS011;5826;54.756;9.192;2022-11-15T13:57:58;8.13;;;7.07;;
11539;SDS011;5826;54.756;9.192;2022-11-15T14:03:12;7.70;;;6.90;;
11539;SDS011;5826;54.756;9.192;2022-11-15T14:06:06;8.30;;;6.80;;
11539;SDS011;5826;54.756;9.192;2022-11-15T14:08:32;7.57;;;6.75;;
11539;SDS011;5826;54.756;9.192;2022-11-15T14:11:32;7.30;;;6.50;;
11539;SDS011;5826;54.756;9.192;2022-11-15T14:16:39;7.72;;;6.35;;
11539;SDS011;5826;54.756;9.192;2022-11-15T14:19:08;7.80;;;6.80;;
11539;SDS011;5826;54.756;9.192;2022-11-15T14:22:14;7.45;;;6.68;;
11539;SDS011;5826;54.756;9.192;2022-11-15T14:24:42;7.50;;;6.50;;
11539;SDS011;5826;54.756;9.192;2022-11-15T14:30:01;7.47;;;6.25;;
11539;SDS011;5826;54.756;9.192;2022-11-15T14:32:28;7.57;;;6.65;;
11539;SDS011;5826;54.756;9.192;2022-11-15T14:35:02;7.60;;;6.80;;
11539;SDS011;5826;54.756;9.192;2022-11-15T14:37:32;8.80;;;7.20;;
11539;SDS011;5826;54.756;9.192;2022-11-15T14:40:03;8.55;;;6.90;;
11539;SDS011;5826;54.756;9.192;2022-11-15T14:42:30;9.27;;;6.85;;
11539;SDS011;5826;54.756;9.192;2022-11-15T14:44:56;7.78;;;6.57;;
11539;SDS011;5826;54.756;9.192;2022-11-15T14:47:22;7.72;;;6.80;;
11539;SDS011;5826;54.756;9.192;2022-11-15T14:49:47;8.63;;;7.10;;
11539;SDS011;5826;54.756;9.192;2022-11-15T14:52:23;6.68;;;5.95;;
11539;SDS011;5826;54.756;9.192;2022-11-15T14:54:50;7.93;;;6.88;;
11539;SDS011;5826;54.756;9.192;2022-11-15T14:57:16;8.43;;;6.93;;
11539;SDS011;5826;54.756;9.192;2022-11-15T14:59:42;7.35;;;6.32;;
11539;SDS011;5826;54.756;9.192;2022-11-15T15:02:17;8.77;;;6.95;;
11539;SDS011;5826;54.756;9.192;2022-11-15T15:04:45;6.93;;;6.07;;
11539;SDS011;5826;54.756;9.192;2022-11-15T15:07:11;7.30;;;6.13;;
11539;SDS011;5826;54.756;9.192;2022-11-15T15:09:36;6.55;;;5.85;;
11539;SDS011;5826;54.756;9.192;2022-11-15T15:12:02;7.68;;;6.30;;
11539;SDS011;5826;54.756;9.192;2022-11-15T15:14:29;6.93;;;6.22;;
11539;SDS011;5826;54.756;9.192;2022-11-15T15:16:54;6.90;;;6.20;;
11539;SDS011;5826;54.756;9.192;2022-11-15T15:19:19;6.75;;;6.15;;
11539;SDS011;5826;54.756;9.192;2022-11-15T15:21:45;7.70;;;5.95;;
11539;SDS011;5826;54.756;9.192;2022-11-15T15:24:14;6.22;;;5.63;;
11539;SDS011;5826;54.756;9.192;2022-11-15T15:26:39;8.40;;;6.88;;
11539;SDS011;5826;54.756;9.192;2022-11-15T15:29:05;6.80;;;5.85;;
11539;SDS011;5826;54.756;9.192;2022-11-15T15:31:31;6.95;;;6.28;;
11539;SDS011;5826;54.756;9.192;2022-11-15T15:33:57;7.85;;;6.90;;
11539;SDS011;5826;54.756;9.192;2022-11-15T15:36:23;8.50;;;7.60;;
11539;SDS011;5826;54.756;9.192;2022-11-15T15:38:48;14.93;;;11.73;;
11539;SDS011;5826;54.756;9.192;2022-11-15T15:41:14;8.82;;;7.93;;
11539;SDS011;5826;54.756;9.192;2022-11-15T15:43:41;8.75;;;7.32;;
11539;SDS011;5826;54.756;9.192;2022-11-15T15:46:16;8.65;;;7.30;;
11539;SDS011;5826;54.756;9.192;2022-11-15T15:48:43;7.75;;;6.78;;
11539;SDS011;5826;54.756;9.192;2022-11-15T15:51:09;11.85;;;8.45;;
11539;SDS011;5826;54.756;9.192;2022-11-15T15:53:34;10.00;;;7.57;;
11539;SDS011;5826;54.756;9.192;2022-11-15T15:56:00;7.55;;;6.75;;
11539;SDS011;5826;54.756;9.192;2022-11-15T15:58:26;8.55;;;7.60;;
11539;SDS011;5826;54.756;9.192;2022-11-15T16:00:51;8.77;;;7.75;;
11539;SDS011;5826;54.756;9.192;2022-11-15T16:03:17;10.00;;;8.90;;
11539;SDS011;5826;54.756;9.192;2022-11-15T16:05:42;8.27;;;7.40;;
11539;SDS011;5826;54.756;9.192;2022-11-15T16:08:21;7.78;;;6.85;;
11539;SDS011;5826;54.756;9.192;2022-11-15T16:10:48;8.32;;;7.43;;
11539;SDS011;5826;54.756;9.192;2022-11-15T16:13:14;8.38;;;7.53;;
11539;SDS011;5826;54.756;9.192;2022-11-15T16:15:40;9.30;;;8.00;;
11539;SDS011;5826;54.756;9.192;2022-11-15T16:18:09;7.80;;;7.00;;
11539;SDS011;5826;54.756;9.192;2022-11-15T16:20:42;7.53;;;6.78;;
11539;SDS011;5826;54.756;9.192;2022-11-15T16:23:13;7.30;;;6.60;;
11539;SDS011;5826;54.756;9.192;2022-11-15T16:25:49;7.85;;;7.05;;
11539;SDS011;5826;54.756;9.192;2022-11-15T16:28:20;7.65;;;6.85;;
11539;SDS011;5826;54.756;9.192;2022-11-15T16:31:01;8.95;;;7.40;;
11539;SDS011;5826;54.756;9.192;2022-11-15T16:33:34;8.25;;;7.30;;
11539;SDS011;5826;54.756;9.192;2022-11-15T16:36:00;8.20;;;7.35;;
11539;SDS011;5826;54.756;9.192;2022-11-15T16:38:25;9.35;;;6.78;;
11539;SDS011;5826;54.756;9.192;2022-11-15T16:40:51;7.88;;;6.85;;
11539;SDS011;5826;54.756;9.192;2022-11-15T16:43:17;7.53;;;6.70;;
11539;SDS011;5826;54.756;9.192;2022-11-15T16:45:42;8.43;;;7.50;;
11539;SDS011;5826;54.756;9.192;2022-11-15T16:48:15;8.13;;;6.90;;
11539;SDS011;5826;54.756;9.192;2022-11-15T16:50:46;8.85;;;7.68;;
11539;SDS011;5826;54.756;9.192;2022-11-15T16:53:12;9.13;;;7.93;;
11539;SDS011;5826;54.756;9.192;2022-11-15T16:55:37;8.43;;;7.53;;
11539;SDS011;5826;54.756;9.192;2022-11-15T16:58:03;10.07;;;8.45;;
11539;SDS011;5826;54.756;9.192;2022-11-15T17:00:28;10.50;;;8.77;;